createdAt,value
2022-08-11T00:01:47.558Z,3.45
2022-08-11T00:04:52.191Z,3.75
2022-08-11T00:07:58.376Z,3.90
2022-08-11T00:11:04.429Z,3.20
2022-08-11T00:14:19.763Z,3.63
2022-08-11T00:17:29.908Z,3.30
2022-08-11T00:20:39.735Z,2.92
2022-08-11T00:23:45.656Z,3.58
2022-08-11T00:26:51.000Z,3.53
2022-08-11T00:29:54.935Z,3.33
2022-08-11T00:32:59.790Z,3.80
2022-08-11T00:36:05.410Z,3.58
2022-08-11T00:39:11.555Z,4.32
2022-08-11T00:42:27.491Z,3.47
2022-08-11T00:45:36.922Z,3.45
2022-08-11T00:48:51.477Z,3.92
2022-08-11T00:52:18.665Z,3.90
2022-08-11T00:56:10.512Z,3.25
2022-08-11T00:59:56.315Z,4.13
2022-08-11T01:03:21.626Z,4.00
2022-08-11T01:07:06.914Z,6.00
2022-08-11T01:10:56.602Z,4.00
2022-08-11T01:14:50.499Z,4.10
2022-08-11T01:18:38.224Z,5.30
2022-08-11T01:22:50.167Z,4.28
2022-08-11T01:26:39.359Z,4.55
2022-08-11T01:30:37.182Z,4.70
2022-08-11T01:34:18.936Z,4.40
2022-08-11T01:38:05.761Z,5.10
2022-08-11T01:41:53.073Z,4.80
2022-08-11T01:45:16.040Z,3.75
2022-08-11T01:48:40.546Z,4.30
2022-08-11T01:52:04.627Z,4.45
2022-08-11T01:55:21.995Z,4.55
2022-08-11T01:58:43.697Z,4.63
2022-08-11T02:02:45.887Z,4.32
2022-08-11T02:06:01.600Z,4.78
2022-08-11T02:09:14.483Z,4.90
2022-08-11T02:12:42.266Z,5.55
2022-08-11T02:16:16.734Z,6.18
2022-08-11T02:19:50.935Z,5.65
2022-08-11T02:23:58.766Z,5.32
2022-08-11T02:26:48.251Z,5.20
2022-08-11T02:30:05.060Z,4.38
2022-08-11T02:33:23.225Z,4.53
2022-08-11T02:36:38.070Z,3.95
2022-08-11T02:39:56.924Z,4.20
2022-08-11T02:43:11.132Z,4.57
2022-08-11T02:46:30.214Z,4.70
2022-08-11T02:50:02.662Z,4.32
2022-08-11T02:53:18.377Z,4.15
2022-08-11T02:56:44.478Z,3.70
2022-08-11T02:59:55.170Z,4.80
2022-08-11T03:03:16.387Z,4.65
2022-08-11T03:06:35.613Z,5.13
2022-08-11T03:09:48.340Z,4.63
2022-08-11T03:13:16.641Z,4.63
2022-08-11T03:16:44.397Z,4.82
2022-08-11T03:20:02.988Z,4.45
2022-08-11T03:23:19.688Z,4.45
2022-08-11T03:26:48.485Z,4.55
2022-08-11T03:30:06.797Z,4.47
2022-08-11T03:33:41.887Z,4.90
2022-08-11T03:37:37.862Z,4.43
2022-08-11T03:42:01.824Z,7.20
2022-08-11T03:45:04.457Z,5.28
2022-08-11T03:48:21.154Z,5.55
2022-08-11T03:51:51.487Z,5.15
2022-08-11T03:55:07.461Z,5.80
2022-08-11T03:58:46.729Z,5.82
2022-08-11T04:02:28.535Z,5.50
2022-08-11T04:06:22.063Z,5.35
2022-08-11T04:10:03.098Z,5.60
2022-08-11T04:13:55.606Z,6.03
2022-08-11T04:17:38.207Z,5.00
2022-08-11T04:21:04.028Z,5.68
2022-08-11T04:24:52.492Z,5.40
2022-08-11T04:28:31.545Z,5.28
2022-08-11T04:31:49.576Z,5.55
2022-08-11T04:35:20.613Z,5.07
2022-08-11T04:38:47.014Z,5.80
2022-08-11T04:42:32.677Z,6.22
2022-08-11T04:46:07.506Z,6.03
2022-08-11T04:49:54.063Z,6.53
2022-08-11T04:53:46.274Z,6.28
2022-08-11T04:57:23.880Z,8.35
2022-08-11T05:00:52.344Z,9.13
2022-08-11T05:05:04.786Z,7.78
2022-08-11T05:08:38.544Z,8.68
2022-08-11T05:12:24.387Z,9.35
2022-08-11T05:15:59.913Z,8.25
2022-08-11T05:19:22.686Z,8.60
2022-08-11T05:22:48.980Z,6.47
2022-08-11T05:26:48.023Z,5.78
2022-08-11T05:30:01.805Z,5.72
2022-08-11T05:33:33.071Z,6.30
2022-08-11T05:36:45.247Z,7.40
2022-08-11T05:40:14.040Z,6.70
2022-08-11T05:43:35.373Z,6.85
2022-08-11T05:46:59.314Z,6.25
2022-08-11T05:50:31.036Z,6.93
2022-08-11T05:53:52.538Z,7.28
2022-08-11T05:57:00.323Z,10.23
2022-08-11T06:00:10.175Z,9.77
2022-08-11T06:03:26.333Z,12.85
2022-08-11T06:06:30.465Z,16.23
2022-08-11T06:09:35.961Z,8.85
2022-08-11T06:12:41.545Z,10.00
2022-08-11T06:15:47.561Z,9.43
2022-08-11T06:18:51.185Z,8.50
2022-08-11T06:21:55.461Z,9.60
2022-08-11T06:25:01.492Z,7.45
2022-08-11T06:28:08.730Z,7.05
2022-08-11T06:31:18.017Z,6.30
2022-08-11T06:34:36.882Z,6.30
2022-08-11T06:37:59.075Z,6.15
2022-08-11T06:41:26.612Z,6.50
2022-08-11T06:44:35.023Z,7.10
2022-08-11T06:47:45.195Z,8.00
2022-08-11T06:51:11.773Z,6.70
2022-08-11T06:54:16.027Z,6.80
2022-08-11T06:57:38.300Z,7.93
2022-08-11T07:00:43.422Z,6.43
2022-08-11T07:03:49.793Z,6.15
2022-08-11T07:07:31.958Z,5.88
2022-08-11T07:11:07.593Z,5.50
2022-08-11T07:14:35.057Z,9.10
2022-08-11T07:17:49.332Z,5.95
2022-08-11T07:21:59.925Z,5.88
2022-08-11T07:25:15.207Z,6.10
2022-08-11T07:28:41.964Z,5.50
2022-08-11T07:31:51.108Z,5.80
2022-08-11T07:35:01.533Z,5.75
2022-08-11T07:38:09.283Z,5.07
2022-08-11T07:41:15.503Z,4.55
2022-08-11T07:44:19.459Z,4.07
2022-08-11T07:47:41.321Z,5.40
2022-08-11T07:51:04.500Z,6.50
2022-08-11T07:54:17.053Z,5.07
2022-08-11T07:58:14.188Z,4.63
2022-08-11T08:01:22.539Z,4.22
2022-08-11T08:04:47.223Z,4.30
2022-08-11T08:08:09.525Z,4.70
2022-08-11T08:11:30.797Z,4.75
2022-08-11T08:14:52.625Z,4.93
2022-08-11T08:18:20.352Z,4.18
2022-08-11T08:21:21.189Z,4.28
2022-08-11T08:24:26.697Z,3.95
2022-08-11T08:27:30.123Z,3.85
2022-08-11T08:30:51.085Z,3.70
2022-08-11T08:33:55.133Z,4.15
2022-08-11T08:36:58.788Z,3.30
2022-08-11T08:40:03.319Z,3.38
2022-08-11T08:43:10.970Z,3.45
2022-08-11T08:46:15.309Z,3.30
2022-08-11T08:49:23.508Z,3.70
2022-08-11T08:52:32.082Z,3.60
2022-08-11T08:55:45.310Z,3.85
2022-08-11T08:58:51.567Z,3.28
2022-08-11T09:02:00.988Z,5.82
2022-08-11T09:05:05.832Z,3.30
2022-08-11T09:08:09.907Z,3.75
2022-08-11T09:11:32.960Z,4.43
2022-08-11T09:14:56.257Z,4.32
2022-08-11T09:18:06.475Z,2.90
2022-08-11T09:21:09.683Z,3.22
2022-08-11T09:24:30.995Z,3.20
2022-08-11T09:27:37.851Z,3.97
2022-08-11T09:30:43.604Z,3.05
2022-08-11T09:33:47.645Z,3.25
2022-08-11T09:37:08.804Z,3.08
2022-08-11T09:40:30.216Z,3.08
2022-08-11T09:43:54.193Z,2.85
2022-08-11T09:46:59.512Z,3.38
2022-08-11T09:50:04.121Z,3.28
2022-08-11T09:53:36.255Z,2.80
2022-08-11T09:56:50.959Z,2.92
2022-08-11T10:00:12.316Z,3.88
2022-08-11T10:03:21.428Z,3.42
2022-08-11T10:06:43.382Z,2.97
2022-08-11T10:09:51.905Z,3.13
2022-08-11T10:13:02.979Z,2.92
2022-08-11T10:16:16.137Z,3.28
2022-08-11T10:19:22.422Z,3.83
2022-08-11T10:22:43.797Z,2.70
2022-08-11T10:26:05.268Z,2.95
2022-08-11T10:29:25.062Z,3.30
2022-08-11T10:32:58.698Z,3.42
2022-08-11T10:36:03.727Z,2.80
2022-08-11T10:39:22.047Z,2.92
2022-08-11T10:42:57.137Z,3.33
2022-08-11T10:46:18.861Z,3.05
2022-08-11T10:49:35.058Z,3.42
2022-08-11T10:52:57.679Z,3.38
2022-08-11T10:56:19.001Z,2.97
2022-08-11T10:59:24.112Z,2.70
2022-08-11T11:02:28.162Z,3.30
2022-08-11T11:05:33.836Z,3.60
2022-08-11T11:08:57.689Z,3.67
2022-08-11T11:12:35.894Z,3.40
2022-08-11T11:16:01.620Z,3.13
2022-08-11T11:19:10.052Z,3.10
2022-08-11T11:22:34.736Z,3.42
2022-08-11T11:26:07.291Z,2.80
2022-08-11T11:29:32.943Z,2.90
2022-08-11T11:32:49.579Z,3.38
2022-08-11T11:36:05.844Z,2.85
2022-08-11T11:39:10.837Z,3.33
2022-08-11T11:42:15.521Z,2.50
2022-08-11T11:45:22.747Z,2.90
2022-08-11T11:48:28.848Z,2.30
2022-08-11T11:51:32.604Z,2.50
2022-08-11T11:54:38.816Z,2.97
2022-08-11T11:58:02.667Z,2.13
2022-08-11T12:01:20.043Z,2.90
2022-08-11T12:04:24.022Z,2.95
2022-08-11T12:07:45.018Z,2.17
2022-08-11T12:11:22.017Z,2.40
2022-08-11T12:14:27.591Z,2.58
2022-08-11T12:17:31.054Z,2.72
2022-08-11T12:20:34.444Z,2.78
2022-08-11T12:24:04.107Z,2.25
2022-08-11T12:27:25.489Z,2.63
2022-08-11T12:30:29.896Z,2.20
2022-08-11T12:33:35.172Z,2.40
2022-08-11T12:36:43.269Z,2.28
2022-08-11T12:40:16.285Z,2.53
2022-08-11T12:43:56.863Z,2.53
2022-08-11T12:47:03.022Z,2.67
2022-08-11T12:50:25.946Z,2.10
2022-08-11T12:53:33.054Z,2.67
2022-08-11T12:57:00.173Z,2.80
2022-08-11T13:00:25.415Z,2.40
2022-08-11T13:03:51.992Z,3.03
2022-08-11T13:06:59.936Z,2.45
2022-08-11T13:10:06.576Z,2.53
2022-08-11T13:13:54.419Z,2.00
2022-08-11T13:16:54.150Z,2.47
2022-08-11T13:19:59.229Z,2.10
2022-08-11T13:23:03.145Z,2.80
2022-08-11T13:26:08.027Z,2.30
2022-08-11T13:29:11.839Z,2.33
2022-08-11T13:32:17.409Z,2.95
2022-08-11T13:35:21.381Z,2.35
2022-08-11T13:38:26.299Z,2.03
2022-08-11T13:41:41.020Z,2.40
2022-08-11T13:44:44.851Z,2.10
2022-08-11T13:47:50.038Z,1.83
2022-08-11T13:51:10.747Z,2.05
2022-08-11T13:54:19.148Z,2.00
2022-08-11T13:58:18.179Z,4.40
2022-08-11T14:00:52.542Z,8.00
2022-08-11T14:04:30.552Z,3.03
2022-08-11T14:07:35.941Z,2.20
2022-08-11T14:10:40.112Z,2.45
2022-08-11T14:13:48.151Z,2.30
2022-08-11T14:16:55.376Z,2.28
2022-08-11T14:20:38.441Z,3.75
2022-08-11T14:23:30.274Z,2.08
2022-08-11T14:26:38.834Z,1.77
2022-08-11T14:29:49.187Z,1.52
2022-08-11T14:32:55.504Z,1.90
2022-08-11T14:36:00.898Z,1.90
2022-08-11T14:39:08.806Z,1.63
2022-08-11T14:42:33.522Z,2.28
2022-08-11T14:45:58.821Z,2.28
2022-08-11T14:49:02.748Z,1.45
2022-08-11T14:52:11.333Z,1.50
2022-08-11T14:55:33.184Z,1.88
2022-08-11T14:58:37.774Z,1.63
2022-08-11T15:01:59.655Z,1.40
2022-08-11T15:05:04.916Z,1.65
2022-08-11T15:08:10.164Z,1.60
2022-08-11T15:11:29.439Z,2.13
2022-08-11T15:14:50.309Z,1.58
2022-08-11T15:18:01.696Z,1.42
2022-08-11T15:21:23.499Z,1.50
2022-08-11T15:24:31.034Z,1.60
2022-08-11T15:27:53.107Z,1.50
2022-08-11T15:31:16.297Z,1.30
2022-08-11T15:34:43.604Z,1.92
2022-08-11T15:37:48.182Z,2.00
2022-08-11T15:41:19.450Z,1.52
2022-08-11T15:45:01.566Z,1.25
2022-08-11T15:48:10.873Z,1.48
2022-08-11T15:51:25.484Z,1.60
2022-08-11T15:54:33.165Z,2.00
2022-08-11T15:57:56.998Z,1.70
2022-08-11T16:01:31.215Z,2.42
2022-08-11T16:04:38.321Z,1.23
2022-08-11T16:07:42.593Z,1.23
2022-08-11T16:10:47.305Z,1.65
2022-08-11T16:14:15.092Z,1.83
2022-08-11T16:17:20.677Z,1.88
2022-08-11T16:20:28.202Z,1.50
2022-08-11T16:23:31.468Z,1.80
2022-08-11T16:27:08.420Z,1.98
2022-08-11T16:30:05.815Z,1.60
2022-08-11T16:33:49.204Z,1.80
2022-08-11T16:36:53.045Z,1.70
2022-08-11T16:39:56.282Z,1.30
2022-08-11T16:43:17.796Z,1.63
2022-08-11T16:46:41.004Z,1.90
2022-08-11T16:49:52.570Z,2.35
2022-08-11T16:52:56.049Z,1.92
2022-08-11T16:56:03.465Z,1.70
2022-08-11T16:59:17.880Z,1.65
2022-08-11T17:02:40.061Z,1.70
2022-08-11T17:06:05.352Z,1.60
2022-08-11T17:09:29.153Z,1.50
2022-08-11T17:12:52.810Z,1.30
2022-08-11T17:16:08.111Z,1.75
2022-08-11T17:19:16.190Z,1.52
2022-08-11T17:22:39.089Z,1.60
2022-08-11T17:26:03.706Z,1.40
2022-08-11T17:29:07.279Z,1.30
2022-08-11T17:32:55.845Z,1.85
2022-08-11T17:36:03.907Z,1.50
2022-08-11T17:39:09.001Z,1.33
2022-08-11T17:42:30.468Z,2.03
2022-08-11T17:45:51.332Z,1.80
2022-08-11T17:48:54.588Z,1.58
2022-08-11T17:52:17.187Z,1.92
2022-08-11T17:55:51.902Z,1.85
2022-08-11T17:59:15.877Z,1.98
2022-08-11T18:02:53.661Z,1.90
2022-08-11T18:10:52.164Z,2.58
2022-08-11T18:14:47.401Z,1.83
2022-08-11T18:22:20.515Z,1.73
2022-08-11T18:25:50.074Z,1.55
2022-08-11T18:29:14.735Z,2.60
2022-08-11T18:32:49.658Z,2.28
2022-08-11T18:36:17.420Z,2.22
2022-08-11T18:39:40.954Z,2.35
2022-08-11T18:43:06.222Z,2.10
2022-08-11T18:46:30.307Z,2.25
2022-08-11T18:50:02.279Z,3.05
2022-08-11T18:53:27.899Z,2.50
2022-08-11T18:56:49.911Z,2.60
2022-08-11T19:00:14.408Z,2.60
2022-08-11T19:03:48.359Z,2.75
2022-08-11T19:07:18.697Z,2.47
2022-08-11T19:10:42.354Z,2.33
2022-08-11T19:14:06.032Z,2.70
2022-08-11T19:17:43.912Z,3.72
2022-08-11T19:21:07.799Z,3.95
2022-08-11T19:24:33.291Z,3.63
2022-08-11T19:27:58.312Z,4.03
2022-08-11T19:31:19.256Z,3.35
2022-08-11T19:34:43.860Z,3.08
2022-08-11T19:38:06.136Z,3.08
2022-08-11T19:41:52.115Z,2.92
2022-08-11T19:45:09.795Z,3.15
2022-08-11T19:48:32.263Z,2.90
2022-08-11T19:51:56.144Z,3.72
2022-08-11T19:55:18.346Z,3.55
2022-08-11T19:58:39.837Z,3.80
2022-08-11T20:02:12.451Z,3.00
2022-08-11T20:05:34.095Z,3.30
2022-08-11T20:09:01.400Z,4.00
2022-08-11T20:12:24.419Z,2.90
2022-08-11T20:15:46.185Z,3.83
2022-08-11T20:19:10.425Z,4.07
2022-08-11T20:22:33.218Z,3.58
2022-08-11T20:26:08.435Z,3.60
2022-08-11T20:29:37.418Z,3.60
2022-08-11T20:33:06.322Z,3.30
2022-08-11T20:36:27.815Z,3.25
2022-08-11T20:39:51.128Z,3.65
2022-08-11T20:44:04.967Z,4.10
2022-08-11T20:46:57.492Z,3.40
2022-08-11T20:50:20.449Z,3.28
2022-08-11T20:53:43.697Z,3.40
2022-08-11T20:57:12.648Z,3.03
2022-08-11T21:00:39.606Z,3.13
2022-08-11T21:04:00.926Z,3.58
2022-08-11T21:07:28.617Z,3.58
2022-08-11T21:10:54.427Z,3.05
2022-08-11T21:14:18.812Z,3.42
2022-08-11T21:17:43.534Z,3.78
2022-08-11T21:21:26.946Z,4.53
2022-08-11T21:24:50.622Z,4.55
2022-08-11T21:28:15.456Z,4.35
2022-08-11T21:31:39.051Z,3.30
2022-08-11T21:35:02.443Z,3.25
2022-08-11T21:38:24.550Z,3.17
2022-08-11T21:41:49.066Z,4.13
2022-08-11T21:45:10.731Z,3.30
2022-08-11T21:48:32.087Z,3.88
2022-08-11T21:51:54.341Z,3.88
2022-08-11T21:55:16.718Z,4.07
2022-08-11T21:58:37.833Z,3.97
2022-08-11T22:01:59.192Z,4.80
2022-08-11T22:05:19.676Z,4.22
2022-08-11T22:08:41.781Z,4.95
2022-08-11T22:12:33.689Z,5.78
2022-08-11T22:15:43.327Z,6.28
2022-08-11T22:19:06.379Z,4.85
2022-08-11T22:22:29.922Z,7.30
2022-08-11T22:25:55.061Z,5.63
2022-08-11T22:29:21.250Z,5.80
2022-08-11T22:33:02.995Z,6.13
2022-08-11T22:36:24.627Z,4.90
2022-08-11T22:40:02.443Z,4.60
2022-08-11T22:43:26.431Z,5.28
2022-08-11T22:46:49.127Z,4.93
2022-08-11T22:50:14.411Z,3.92
2022-08-11T22:53:57.150Z,3.40
2022-08-11T22:57:18.507Z,3.88
2022-08-11T23:00:40.557Z,5.40
2022-08-11T23:04:01.666Z,5.13
2022-08-11T23:07:49.385Z,4.38
2022-08-11T23:11:05.127Z,4.45
2022-08-11T23:14:26.194Z,4.38
2022-08-11T23:17:51.727Z,4.00
2022-08-11T23:21:13.149Z,3.90
2022-08-11T23:24:35.211Z,4.10
2022-08-11T23:27:57.147Z,4.07
2022-08-11T23:31:18.902Z,3.55
2022-08-11T23:35:03.689Z,4.40
2022-08-11T23:38:25.826Z,4.25
2022-08-11T23:41:47.194Z,4.63
2022-08-11T23:45:09.634Z,4.20
2022-08-11T23:48:34.297Z,4.35
2022-08-11T23:51:57.993Z,4.70
2022-08-11T23:55:18.419Z,3.88
2022-08-11T23:58:39.338Z,3.67
